Time;durP1;ratioP1;P1;durP2;ratioP2;P2;SDS_P1;SDS_P2;PMS_P1;PMS_P2;Temp;Humidity;BMP_temperature;BMP_pressure;BME280_temperature;BME280_humidity;BME280_pressure;Samples;Min_cycle;Max_cycle;Signal;HPM_P1;HPM_P2
2021/07/10 00:00:37;;;;;;;6.53;5.93;;;;;;;15.40;100.00;100752.13;5070874;28;20248;-74
2021/07/10 00:03:03;;;;;;;11.07;8.10;;;;;;;15.39;100.00;100749.72;5070592;28;20186;-73
2021/07/10 00:05:29;;;;;;;8.77;7.87;;;;;;;15.38;100.00;100742.59;5070725;28;20214;-73
2021/07/10 00:07:54;;;;;;;8.83;7.93;;;;;;;15.35;100.00;100741.31;5070820;28;20185;-73
2021/07/10 00:10:19;;;;;;;7.97;7.27;;;;;;;15.32;100.00;100738.41;5070829;28;20178;-73
2021/07/10 00:12:45;;;;;;;9.73;8.73;;;;;;;15.29;100.00;100739.91;5070567;28;20179;-73
2021/07/10 00:15:13;;;;;;;9.83;7.93;;;;;;;15.28;100.00;100727.28;5069472;28;20186;-73
2021/07/10 00:17:38;;;;;;;14.63;8.17;;;;;;;15.27;100.00;100727.63;5070620;28;20637;-73
2021/07/10 00:20:06;;;;;;;8.30;7.33;;;;;;;15.21;100.00;100721.50;5070750;28;20174;-73
2021/07/10 00:22:31;;;;;;;7.93;6.97;;;;;;;15.18;100.00;100716.66;5070496;28;20174;-73
2021/07/10 00:24:57;;;;;;;9.03;7.37;;;;;;;15.15;100.00;100725.59;5070542;28;20718;-73
2021/07/10 00:27:22;;;;;;;7.10;6.40;;;;;;;15.11;100.00;100719.97;5070158;28;20221;-73
2021/07/10 00:29:47;;;;;;;10.30;9.17;;;;;;;15.09;100.00;100718.69;5070667;28;20642;-73
2021/07/10 00:32:13;;;;;;;10.67;7.20;;;;;;;15.06;100.00;100722.91;5070365;28;20182;-73
2021/07/10 00:34:38;;;;;;;8.20;7.43;;;;;;;15.05;100.00;100720.50;5069162;28;20175;-73
2021/07/10 00:37:04;;;;;;;7.23;6.50;;;;;;;15.01;100.00;100722.28;5070474;28;20216;-73
2021/07/10 00:39:29;;;;;;;8.60;7.80;;;;;;;14.98;100.00;100706.47;5070991;28;20510;-73
2021/07/10 00:41:54;;;;;;;7.13;6.43;;;;;;;14.95;100.00;100707.13;5070376;28;20227;-72
2021/07/10 00:44:20;;;;;;;8.77;7.97;;;;;;;14.92;100.00;100700.34;5070401;28;20247;-73
2021/07/10 00:46:45;;;;;;;10.77;9.27;;;;;;;14.89;100.00;100704.56;5070563;28;20178;-73
2021/07/10 00:49:12;;;;;;;9.50;7.30;;;;;;;14.93;100.00;100707.47;5070316;28;20258;-73
2021/07/10 00:51:37;;;;;;;13.27;8.57;;;;;;;14.95;100.00;100704.38;5070161;28;20218;-73
2021/07/10 00:54:03;;;;;;;10.93;8.33;;;;;;;14.96;100.00;100697.75;5069145;28;20643;-73
2021/07/10 00:56:28;;;;;;;17.10;8.13;;;;;;;14.95;100.00;100694.19;5070646;28;20170;-73
2021/07/10 00:58:54;;;;;;;6.13;5.37;;;;;;;14.91;100.00;100692.44;5070363;28;20186;-72
2021/07/10 01:01:19;;;;;;;13.43;6.47;;;;;;;14.88;100.00;100694.69;5069878;28;20187;-73
2021/07/10 01:03:45;;;;;;;6.50;5.87;;;;;;;14.91;100.00;100704.25;5070192;28;20211;-73
2021/07/10 01:06:14;;;;;;;12.63;6.93;;;;;;;14.94;100.00;100708.28;5070296;28;20261;-73
2021/07/10 01:08:41;;;;;;;8.53;7.73;;;;;;;14.95;100.00;100710.69;5070515;28;20262;-73
2021/07/10 01:11:08;;;;;;;7.87;7.23;;;;;;;14.96;100.00;100708.75;5068719;28;20182;-73
2021/07/10 01:13:34;;;;;;;11.00;9.40;;;;;;;14.97;100.00;100702.91;5070211;28;20178;-73
2021/07/10 01:16:00;;;;;;;10.63;9.60;;;;;;;15.01;100.00;100697.53;5070018;28;20194;-73
2021/07/10 01:18:25;;;;;;;10.60;8.90;;;;;;;15.03;100.00;100709.00;5070179;28;20186;-73
2021/07/10 01:20:52;;;;;;;19.90;9.07;;;;;;;15.05;100.00;100704.00;5069932;28;20175;-73
2021/07/10 01:23:19;;;;;;;9.33;8.43;;;;;;;15.09;100.00;100702.19;5070147;28;20265;-73
2021/07/10 01:25:45;;;;;;;11.27;10.17;;;;;;;15.11;100.00;100694.38;5069991;28;20175;-74
2021/07/10 01:28:13;;;;;;;11.17;8.90;;;;;;;15.15;100.00;100700.81;5069982;28;20174;-73
2021/07/10 01:30:39;;;;;;;19.03;9.87;;;;;;;15.21;100.00;100702.25;5070172;28;20308;-74
2021/07/10 01:33:05;;;;;;;9.07;8.17;;;;;;;15.23;100.00;100705.47;5070349;28;20175;-74
2021/07/10 01:35:31;;;;;;;9.77;8.77;;;;;;;15.19;100.00;100696.28;5069939;28;20201;-74
2021/07/10 01:37:57;;;;;;;7.83;6.90;;;;;;;15.26;100.00;100710.28;5069832;28;20536;-74
2021/07/10 01:40:24;;;;;;;9.17;8.27;;;;;;;15.22;100.00;100709.38;5071439;28;20584;-74
2021/07/10 01:42:50;;;;;;;8.60;7.67;;;;;;;15.17;100.00;100710.34;5073392;28;20173;-74
2021/07/10 01:45:20;;;;;;;8.97;8.07;;;;;;;15.18;100.00;100708.41;5073182;28;20214;-73
2021/07/10 01:47:46;;;;;;;8.27;7.47;;;;;;;15.16;100.00;100706.00;5073370;28;20265;-73
2021/07/10 01:50:12;;;;;;;7.27;6.67;;;;;;;15.12;100.00;100707.00;5073734;28;20266;-73
2021/07/10 01:52:38;;;;;;;8.33;7.40;;;;;;;15.08;100.00;100695.06;5073285;28;20177;-73
2021/07/10 01:55:06;;;;;;;7.73;7.03;;;;;;;15.06;100.00;100695.41;5073236;28;20263;-73
2021/07/10 01:57:32;;;;;;;11.27;7.83;;;;;;;15.04;100.00;100699.59;5073199;28;20181;-73
2021/07/10 01:59:57;;;;;;;9.53;7.60;;;;;;;15.00;100.00;100701.41;5073096;28;20175;-73
2021/07/10 02:02:22;;;;;;;9.20;7.97;;;;;;;15.00;100.00;100687.66;5071601;28;20591;-74
2021/07/10 02:04:51;;;;;;;7.27;6.67;;;;;;;14.95;100.00;100699.69;5071796;28;20233;-73
2021/07/10 02:07:17;;;;;;;8.20;7.43;;;;;;;14.91;100.00;100697.94;5073105;28;20202;-74
2021/07/10 02:09:44;;;;;;;6.67;6.10;;;;;;;14.88;100.00;100700.19;5072803;28;20728;-73
2021/07/10 02:12:11;;;;;;;8.77;7.87;;;;;;;14.87;100.00;100697.78;5072811;28;20193;-73
2021/07/10 02:14:36;;;;;;;9.63;8.73;;;;;;;14.86;100.00;100696.97;5072736;28;20269;-73
2021/07/10 02:17:02;;;;;;;9.90;7.57;;;;;;;14.87;100.00;100697.78;5072873;28;20250;-73
2021/07/10 02:19:28;;;;;;;8.83;8.00;;;;;;;14.85;100.00;100700.06;5072775;28;20190;-73
2021/07/10 02:21:53;;;;;;;10.47;8.53;;;;;;;14.83;100.00;100703.16;5072533;28;20539;-74
2021/07/10 02:24:18;;;;;;;9.03;8.07;;;;;;;14.79;100.00;100704.16;5072873;28;20209;-73
2021/07/10 02:26:44;;;;;;;8.83;7.93;;;;;;;14.80;100.00;100709.31;5072597;28;20227;-73
2021/07/10 02:29:09;;;;;;;10.10;8.83;;;;;;;14.79;100.00;100695.91;5071322;28;20285;-73
2021/07/10 02:31:35;;;;;;;8.97;8.13;;;;;;;14.74;100.00;100696.88;5072573;28;20210;-74
2021/07/10 02:34:01;;;;;;;12.03;8.43;;;;;;;14.72;100.00;100696.44;5072651;28;20190;-73
2021/07/10 02:36:26;;;;;;;7.77;7.07;;;;;;;14.67;100.00;100696.63;5072383;28;20265;-73
2021/07/10 02:38:51;;;;;;;7.03;6.27;;;;;;;14.64;100.00;100697.31;5072492;28;20227;-73
2021/07/10 02:41:17;;;;;;;13.20;8.87;;;;;;;14.65;100.00;100696.16;5072328;28;20175;-74
2021/07/10 02:43:42;;;;;;;8.90;8.10;;;;;;;14.67;100.00;100702.13;5072033;28;20198;-74
2021/07/10 02:46:08;;;;;;;19.87;7.83;;;;;;;14.69;100.00;100705.34;5072315;28;20175;-73
2021/07/10 02:48:34;;;;;;;8.43;7.63;;;;;;;14.69;100.00;100691.59;5071017;28;20179;-73
2021/07/10 02:50:59;;;;;;;10.53;9.40;;;;;;;14.68;100.00;100686.44;5071723;28;20170;-74
2021/07/10 02:53:25;;;;;;;8.73;7.77;;;;;;;14.67;100.00;100696.63;5072271;28;20174;-73
2021/07/10 02:55:50;;;;;;;19.17;9.13;;;;;;;14.66;100.00;100700.50;5072141;28;20187;-73
2021/07/10 02:58:15;;;;;;;9.17;8.03;;;;;;;14.65;100.00;100696.16;5072093;28;20171;-73
2021/07/10 03:00:41;;;;;;;9.67;8.77;;;;;;;14.66;100.00;100688.72;5072101;28;20227;-74
2021/07/10 03:03:07;;;;;;;10.20;7.90;;;;;;;14.62;100.00;100691.31;5072075;28;20657;-73
2021/07/10 03:05:33;;;;;;;11.73;9.57;;;;;;;14.63;100.00;100687.44;5072029;28;20217;-73
2021/07/10 03:08:00;;;;;;;15.33;10.57;;;;;;;14.64;100.00;100685.50;5072257;28;20277;-73
2021/07/10 03:10:27;;;;;;;12.57;9.00;;;;;;;14.65;100.00;100682.41;5072258;28;20245;-74
2021/07/10 03:12:56;;;;;;;10.73;9.63;;;;;;;14.66;100.00;100685.97;5072070;28;20563;-73
2021/07/10 03:15:21;;;;;;;8.17;7.40;;;;;;;14.63;100.00;100684.69;5072160;28;20206;-74
2021/07/10 03:17:48;;;;;;;9.47;8.33;;;;;;;14.59;100.00;100684.53;5071984;28;20209;-72
2021/07/10 03:20:14;;;;;;;6.63;5.93;;;;;;;14.53;100.00;100685.88;5072026;28;20196;-73
2021/07/10 03:22:40;;;;;;;8.80;7.90;;;;;;;14.44;100.00;100679.59;5070363;28;20261;-73
2021/07/10 03:25:09;;;;;;;8.57;7.37;;;;;;;14.39;100.00;100673.47;5071468;28;20199;-74
2021/07/10 03:27:34;;;;;;;8.07;7.27;;;;;;;14.31;100.00;100661.34;5070530;28;20175;-73
2021/07/10 03:30:01;;;;;;;9.20;8.33;;;;;;;14.27;100.00;100672.22;5071699;28;20170;-73
2021/07/10 03:32:26;;;;;;;11.07;7.97;;;;;;;14.24;100.00;100678.38;5071651;28;20198;-73
2021/07/10 03:34:52;;;;;;;9.07;8.17;;;;;;;14.21;100.00;100673.56;5070653;28;20678;-73
2021/07/10 03:37:17;;;;;;;9.00;8.10;;;;;;;14.22;100.00;100679.84;5071890;28;20170;-73
2021/07/10 03:39:43;;;;;;;9.73;8.73;;;;;;;14.20;100.00;100674.69;5071866;28;20224;-73
2021/07/10 03:42:08;;;;;;;8.57;7.77;;;;;;;14.16;100.00;100673.72;5071894;28;20210;-72
2021/07/10 03:44:34;;;;;;;8.33;7.53;;;;;;;14.14;100.00;100684.22;5071573;28;20214;-73
2021/07/10 03:47:00;;;;;;;9.40;8.37;;;;;;;14.14;100.00;100684.22;5070584;28;20499;-74
2021/07/10 03:49:26;;;;;;;8.53;7.50;;;;;;;14.17;100.00;100685.50;5071701;28;20721;-74
2021/07/10 03:51:52;;;;;;;9.30;8.30;;;;;;;14.20;100.00;100679.38;5070413;28;20224;-74
2021/07/10 03:54:17;;;;;;;7.20;6.53;;;;;;;14.24;100.00;100680.31;5071455;28;20268;-73
2021/07/10 03:56:43;;;;;;;15.33;8.43;;;;;;;14.25;100.00;100676.44;5071866;28;20219;-74
2021/07/10 03:59:08;;;;;;;8.40;7.53;;;;;;;14.29;100.00;100669.13;5071477;28;20231;-73
2021/07/10 04:01:33;;;;;;;8.47;6.70;;;;;;;14.31;100.00;100672.34;5070765;28;20201;-74
2021/07/10 04:04:00;;;;;;;9.30;8.47;;;;;;;14.36;100.00;100669.44;5071617;28;20666;-73
2021/07/10 04:06:26;;;;;;;11.37;8.40;;;;;;;14.39;100.00;100666.03;5071395;28;20216;-73
2021/07/10 04:08:52;;;;;;;8.30;7.43;;;;;;;14.39;100.00;100671.50;5071634;28;20179;-73
2021/07/10 04:11:17;;;;;;;7.80;6.83;;;;;;;14.36;100.00;100674.13;5071782;28;20232;-73
2021/07/10 04:13:42;;;;;;;8.27;7.57;;;;;;;14.36;100.00;100671.38;5071614;28;20186;-73
2021/07/10 04:16:08;;;;;;;14.90;9.00;;;;;;;14.33;100.00;100672.84;5071897;28;20185;-73
2021/07/10 04:18:33;;;;;;;9.80;8.37;;;;;;;14.35;100.00;100670.56;5071843;28;20174;-74
2021/07/10 04:20:59;;;;;;;9.37;7.63;;;;;;;14.35;100.00;100661.53;5071496;28;20175;-74
2021/07/10 04:23:25;;;;;;;7.87;7.10;;;;;;;14.37;100.00;100670.25;5071778;28;20174;-73
2021/07/10 04:25:51;;;;;;;7.90;7.10;;;;;;;14.39;100.00;100670.72;5071803;28;20174;-73
2021/07/10 04:28:17;;;;;;;10.63;8.33;;;;;;;14.40;100.00;100662.13;5071826;28;20178;-73
2021/07/10 04:30:44;;;;;;;8.80;7.97;;;;;;;14.42;100.00;100676.34;5070954;28;21371;-73
2021/07/10 04:33:09;;;;;;;10.37;7.20;;;;;;;14.38;100.00;100680.09;5073668;28;20178;-73
2021/07/10 04:35:35;;;;;;;7.07;6.47;;;;;;;14.37;100.00;100670.25;5076230;28;20185;-73
2021/07/10 04:38:00;;;;;;;7.87;7.07;;;;;;;14.39;100.00;100673.47;5071392;28;20181;-73
2021/07/10 04:40:25;;;;;;;8.90;8.00;;;;;;;14.43;100.00;100679.91;5071060;28;20228;-73
2021/07/10 04:42:51;;;;;;;8.13;7.43;;;;;;;14.45;100.00;100678.47;5070621;28;20208;-73
2021/07/10 04:45:16;;;;;;;8.87;6.40;;;;;;;14.43;100.00;100682.66;5070583;28;20218;-73
2021/07/10 04:47:43;;;;;;;8.07;7.30;;;;;;;14.49;100.00;100679.44;5070672;28;20177;-73
2021/07/10 04:50:10;;;;;;;8.90;7.90;;;;;;;14.58;100.00;100677.41;5070485;28;20167;-73
2021/07/10 04:52:35;;;;;;;8.30;7.07;;;;;;;14.65;100.00;100674.16;5070232;28;20637;-73
2021/07/10 04:55:01;;;;;;;8.67;7.83;;;;;;;14.73;100.00;100678.78;5070636;28;20471;-74
2021/07/10 04:57:27;;;;;;;9.67;8.67;;;;;;;14.80;100.00;100678.25;5070386;28;20179;-73
2021/07/10 04:59:52;;;;;;;10.70;9.63;;;;;;;14.85;100.00;100673.38;5070643;28;20312;-73
2021/07/10 05:02:18;;;;;;;10.53;8.97;;;;;;;14.91;100.00;100679.50;5070144;28;20186;-73
2021/07/10 05:04:43;;;;;;;17.00;11.03;;;;;;;14.95;100.00;100674.94;5070276;28;20199;-73
2021/07/10 05:07:08;;;;;;;11.40;9.13;;;;;;;14.96;100.00;100682.03;5070475;28;20167;-73
2021/07/10 05:09:34;;;;;;;11.07;9.97;;;;;;;14.98;100.00;100676.19;5070359;28;20171;-73
2021/07/10 05:11:59;;;;;;;11.10;9.70;;;;;;;15.02;100.00;100680.69;5070138;28;20186;-73
2021/07/10 05:14:24;;;;;;;7.47;6.60;;;;;;;14.97;100.00;100683.66;5073531;28;20845;-73
2021/07/10 05:16:50;;;;;;;10.10;8.73;;;;;;;14.94;100.00;100678.81;5072415;28;20265;-73
2021/07/10 05:19:15;;;;;;;9.30;8.33;;;;;;;14.94;100.00;100670.56;5074019;28;20178;-72
2021/07/10 05:21:41;;;;;;;7.67;6.87;;;;;;;14.96;100.00;100670.22;5073739;28;20167;-73
2021/07/10 05:24:06;;;;;;;10.77;9.40;;;;;;;14.98;100.00;100668.75;5073700;28;20649;-73
2021/07/10 05:26:32;;;;;;;8.87;8.00;;;;;;;15.04;100.00;100674.84;5073876;28;20175;-73
2021/07/10 05:28:57;;;;;;;9.23;8.33;;;;;;;15.10;100.00;100681.78;5073762;28;20753;-73
2021/07/10 05:31:23;;;;;;;11.17;8.03;;;;;;;15.10;100.00;100668.81;5073579;28;20171;-74
2021/07/10 05:33:48;;;;;;;7.93;7.13;;;;;;;15.13;100.00;100673.63;5073669;28;20181;-73
2021/07/10 05:36:14;;;;;;;13.40;9.03;;;;;;;15.21;100.00;100671.97;5072570;28;20170;-73
2021/07/10 05:38:39;;;;;;;9.63;8.53;;;;;;;15.29;100.00;100676.59;5073593;28;20253;-73
2021/07/10 05:41:04;;;;;;;8.53;7.37;;;;;;;15.28;100.00;100680.47;5073358;28;20179;-76
2021/07/10 05:43:33;;;;;;;12.63;9.17;;;;;;;15.34;100.00;100673.63;5073301;28;20167;-74
2021/07/10 05:45:58;;;;;;;10.90;8.77;;;;;;;15.39;100.00;100672.63;5073544;28;20202;-73
2021/07/10 05:48:23;;;;;;;12.90;9.07;;;;;;;15.48;100.00;100674.16;5073389;28;20688;-75
2021/07/10 05:50:49;;;;;;;10.43;8.03;;;;;;;15.52;100.00;100678.97;5073356;28;20573;-75
2021/07/10 05:53:14;;;;;;;9.37;8.47;;;;;;;15.58;100.00;100674.84;5073210;28;20257;-76
2021/07/10 05:55:40;;;;;;;8.90;8.00;;;;;;;15.57;100.00;100671.31;5073152;28;20245;-75
2021/07/10 05:58:06;;;;;;;7.97;7.00;;;;;;;15.59;100.00;100669.03;5073512;28;20190;-75
2021/07/10 06:00:32;;;;;;;7.10;6.50;;;;;;;15.61;100.00;100674.19;5073077;28;20654;-74
2021/07/10 06:02:58;;;;;;;6.37;5.87;;;;;;;15.58;100.00;100685.88;5072902;28;20187;-75
2021/07/10 06:05:25;;;;;;;8.27;7.50;;;;;;;15.60;100.00;100686.38;5072947;28;20647;-75
2021/07/10 06:07:54;;;;;;;7.40;6.70;;;;;;;15.62;100.00;100686.81;5073011;28;20174;-75
2021/07/10 06:10:20;;;;;;;7.67;6.93;;;;;;;15.64;100.00;100698.34;5073034;28;20171;-75
2021/07/10 06:12:46;;;;;;;8.20;6.53;;;;;;;15.70;100.00;100692.25;5071500;28;20194;-76
2021/07/10 06:15:12;;;;;;;8.73;7.93;;;;;;;15.76;100.00;100693.66;5072958;28;20269;-76
2021/07/10 06:17:42;;;;;;;10.67;7.23;;;;;;;15.83;100.00;100693.09;5072807;28;20201;-75
2021/07/10 06:20:11;;;;;;;7.67;6.90;;;;;;;15.85;100.00;100685.31;5072811;28;20178;-75
2021/07/10 06:22:37;;;;;;;6.23;5.67;;;;;;;15.90;98.70;100685.06;5071464;28;20578;-75
2021/07/10 06:25:05;;;;;;;6.93;6.23;;;;;;;15.90;98.92;100687.81;5069292;28;20745;-76
2021/07/10 06:27:30;;;;;;;8.03;7.33;;;;;;;15.97;100.00;100688.09;5072326;28;20209;-75
2021/07/10 06:29:56;;;;;;;7.67;6.30;;;;;;;16.05;98.23;100683.59;5072623;28;20221;-75
2021/07/10 06:32:21;;;;;;;6.77;6.17;;;;;;;16.08;97.18;100687.66;5072530;28;20170;-76
2021/07/10 06:34:46;;;;;;;5.73;5.23;;;;;;;16.15;96.72;100687.88;5072535;28;20182;-75
2021/07/10 06:37:12;;;;;;;5.70;5.20;;;;;;;16.14;95.51;100692.59;5072563;28;20171;-75
2021/07/10 06:39:37;;;;;;;7.23;4.43;;;;;;;16.11;93.60;100698.00;5072551;28;20204;-75
2021/07/10 06:42:03;;;;;;;6.27;5.77;;;;;;;16.13;93.64;100701.19;5072310;28;20195;-76
2021/07/10 06:44:29;;;;;;;6.53;5.97;;;;;;;16.19;92.50;100703.38;5072415;28;20656;-76
2021/07/10 06:46:54;;;;;;;7.93;5.93;;;;;;;16.33;94.42;100719.59;5072379;28;20178;-76
2021/07/10 06:49:21;;;;;;;7.10;6.50;;;;;;;16.42;93.09;100709.28;5072170;28;20163;-75
2021/07/10 06:51:46;;;;;;;7.07;6.37;;;;;;;16.54;93.75;100698.25;5071998;28;20257;-76
2021/07/10 06:54:12;;;;;;;6.17;5.67;;;;;;;16.54;93.09;100695.50;5072128;28;20184;-76
2021/07/10 06:56:37;;;;;;;6.43;5.83;;;;;;;16.65;93.02;100710.44;5072187;28;20205;-76
2021/07/10 06:59:03;;;;;;;6.43;5.83;;;;;;;16.76;93.64;100698.94;5072097;28;20206;-75
2021/07/10 07:01:28;;;;;;;6.20;5.60;;;;;;;16.75;91.86;100703.66;5071652;28;20217;-75
2021/07/10 07:03:54;;;;;;;7.23;6.53;;;;;;;16.74;89.75;100701.25;5071795;28;20191;-75
2021/07/10 07:06:20;;;;;;;7.00;6.03;;;;;;;16.78;91.71;100700.22;5071571;28;20637;-76
2021/07/10 07:08:45;;;;;;;6.50;6.00;;;;;;;16.83;92.76;100708.25;5071713;28;20182;-76
2021/07/10 07:11:11;;;;;;;6.67;6.07;;;;;;;16.86;91.10;100707.56;5070142;28;20377;-75
2021/07/10 07:13:37;;;;;;;7.03;6.40;;;;;;;16.99;91.52;100704.78;5071463;28;20179;-75
2021/07/10 07:16:03;;;;;;;6.50;5.90;;;;;;;17.06;91.03;100702.22;5071752;28;20251;-75
2021/07/10 07:18:28;;;;;;;6.57;5.97;;;;;;;17.08;91.78;100702.69;5071556;28;20179;-75
2021/07/10 07:20:53;;;;;;;7.10;6.43;;;;;;;17.04;92.16;100699.81;5071187;28;20690;-76
2021/07/10 07:23:19;;;;;;;6.77;6.17;;;;;;;17.00;92.90;100709.16;5067575;28;20186;-75
2021/07/10 07:25:47;;;;;;;7.67;6.70;;;;;;;16.92;92.79;100705.34;5069461;28;20544;-75
2021/07/10 07:28:12;;;;;;;6.80;6.20;;;;;;;16.92;93.24;100702.59;5070345;28;20178;-76
2021/07/10 07:30:38;;;;;;;5.77;5.27;;;;;;;16.90;90.70;100699.38;5070896;28;20525;-76
2021/07/10 07:33:04;;;;;;;6.33;5.73;;;;;;;17.05;90.26;100698.66;5070736;28;20178;-76
2021/07/10 07:35:30;;;;;;;5.33;4.93;;;;;;;17.28;89.74;100695.38;5070855;28;20401;-76
2021/07/10 07:37:56;;;;;;;6.30;5.70;;;;;;;17.46;86.91;100702.22;5070962;28;20201;-76
2021/07/10 07:40:22;;;;;;;7.17;6.47;;;;;;;17.63;89.80;100701.09;5070726;28;20634;-76
2021/07/10 07:42:47;;;;;;;7.13;6.43;;;;;;;17.66;88.49;100695.69;5068270;28;20193;-75
2021/07/10 07:45:14;;;;;;;6.67;6.07;;;;;;;17.66;89.90;100692.13;5069835;28;20293;-76
2021/07/10 07:47:40;;;;;;;7.97;7.27;;;;;;;17.48;89.96;100686.88;5069293;28;20189;-76
2021/07/10 07:50:08;;;;;;;7.17;6.47;;;;;;;17.33;91.12;100681.31;5070569;28;20178;-76
2021/07/10 07:52:34;;;;;;;6.33;5.83;;;;;;;17.27;92.32;100683.53;5069304;28;20188;-76
2021/07/10 07:55:00;;;;;;;6.63;5.90;;;;;;;17.28;92.28;100676.06;5067911;28;20188;-75
2021/07/10 07:57:25;;;;;;;6.57;5.97;;;;;;;17.34;91.68;100685.69;5070740;28;20527;-76
2021/07/10 07:59:51;;;;;;;6.20;5.70;;;;;;;17.42;91.94;100682.78;5071049;28;20561;-76
2021/07/10 08:02:16;;;;;;;6.07;5.57;;;;;;;17.53;89.78;100688.63;5070649;28;20689;-76
2021/07/10 08:04:49;;;;;;;8.63;6.57;;;;;;;17.78;90.22;100684.59;5069910;28;20222;-74
2021/07/10 08:07:14;;;;;;;6.87;5.83;;;;;;;17.97;88.79;100680.34;5071218;28;20249;-74
2021/07/10 08:09:40;;;;;;;7.47;6.77;;;;;;;18.09;88.21;100686.59;5070866;28;20250;-75
2021/07/10 08:12:06;;;;;;;6.60;6.07;;;;;;;18.24;88.49;100673.94;5070606;28;20189;-74
2021/07/10 08:14:31;;;;;;;6.73;6.03;;;;;;;18.39;87.56;100672.31;5070776;28;20674;-76
2021/07/10 08:16:56;;;;;;;6.13;5.63;;;;;;;18.35;85.65;100671.41;5070685;28;20258;-76
2021/07/10 08:19:22;;;;;;;6.80;6.20;;;;;;;18.33;86.34;100677.31;5070785;28;20178;-75
2021/07/10 08:21:47;;;;;;;6.93;6.33;;;;;;;18.18;87.26;100675.34;5070558;28;20280;-75
2021/07/10 08:24:13;;;;;;;8.03;7.33;;;;;;;18.21;88.70;100682.13;5070731;28;20697;-76
2021/07/10 08:26:38;;;;;;;8.03;7.07;;;;;;;18.33;87.48;100676.50;5070585;28;20179;-75
2021/07/10 08:29:05;;;;;;;6.93;6.37;;;;;;;18.40;88.62;100680.25;5070619;28;20170;-76
2021/07/10 08:31:33;;;;;;;7.33;6.73;;;;;;;18.21;86.95;100688.47;5069033;28;20177;-76
2021/07/10 08:33:58;;;;;;;8.87;7.93;;;;;;;18.29;87.91;100679.19;5070505;28;20194;-76
2021/07/10 08:36:24;;;;;;;9.53;8.03;;;;;;;18.31;85.37;100678.84;5069194;28;20587;-75
2021/07/10 08:38:49;;;;;;;8.33;7.53;;;;;;;18.30;83.84;100683.56;5071320;28;20171;-75
2021/07/10 08:41:16;;;;;;;8.67;7.90;;;;;;;18.32;86.06;100688.72;5070759;28;20300;-76
2021/07/10 08:43:43;;;;;;;7.60;7.00;;;;;;;18.22;85.15;100672.66;5070326;28;20228;-76
2021/07/10 08:46:09;;;;;;;10.50;8.60;;;;;;;18.11;87.52;100676.00;5070359;28;20174;-75
2021/07/10 08:48:35;;;;;;;7.70;7.10;;;;;;;18.50;89.51;100673.34;5072288;28;20196;-76
2021/07/10 08:51:03;;;;;;;8.73;7.93;;;;;;;18.80;88.04;100675.66;5072170;28;20179;-76
2021/07/10 08:53:29;;;;;;;9.97;8.30;;;;;;;19.06;86.94;100675.03;5074337;28;20253;-76
2021/07/10 08:55:54;;;;;;;8.07;7.37;;;;;;;19.09;83.62;100672.34;5074528;28;20183;-75
2021/07/10 08:58:21;;;;;;;8.40;7.67;;;;;;;19.22;84.89;100673.00;5074257;28;20175;-75
2021/07/10 09:00:48;;;;;;;8.20;7.50;;;;;;;19.23;84.01;100671.84;5073155;28;20803;-75
2021/07/10 09:03:14;;;;;;;6.30;5.70;;;;;;;19.10;83.10;100667.63;5074302;28;20198;-75
2021/07/10 09:05:40;;;;;;;8.50;7.80;;;;;;;19.18;84.71;100675.72;5072410;28;20271;-75
2021/07/10 09:08:20;;;;;;;9.13;8.33;;;;;;;19.24;84.43;100670.66;5072764;28;20218;-76
2021/07/10 09:10:54;;;;;;;8.03;7.43;;;;;;;19.25;85.93;100680.59;5073948;28;20629;-74
2021/07/10 09:13:28;;;;;;;7.87;7.27;;;;;;;19.21;80.06;100674.97;5074010;28;20193;-75
2021/07/10 09:16:00;;;;;;;8.87;6.17;;;;;;;19.28;80.71;100668.78;5073800;28;20178;-73
2021/07/10 09:18:38;;;;;;;7.87;7.20;;;;;;;19.39;82.88;100669.03;5074276;28;20167;-74
2021/07/10 09:21:03;;;;;;;8.53;7.73;;;;;;;19.39;79.96;100667.03;5073563;28;20162;-75
2021/07/10 09:23:39;;;;;;;7.53;6.93;;;;;;;19.52;80.71;100671.25;5073655;28;20874;-75
2021/07/10 09:26:15;;;;;;;7.13;6.53;;;;;;;19.55;80.18;100662.25;5073701;28;20212;-75
2021/07/10 09:28:41;;;;;;;7.83;7.23;;;;;;;19.51;82.71;100666.88;5073792;28;20407;-75
2021/07/10 09:31:25;;;;;;;6.07;5.67;;;;;;;19.59;81.20;100657.56;5073806;28;20183;-75
2021/07/10 09:34:16;;;;;;;8.20;7.60;;;;;;;19.76;81.46;100667.38;5073654;28;20166;-75
2021/07/10 09:37:01;;;;;;;7.60;7.03;;;;;;;19.89;81.61;100663.25;5073603;28;20173;-75
2021/07/10 09:39:30;;;;;;;7.13;6.50;;;;;;;19.98;81.40;100660.25;5073454;28;20170;-75
2021/07/10 09:41:57;;;;;;;6.70;6.10;;;;;;;20.25;81.92;100657.50;5073231;28;20220;-75
2021/07/10 09:44:23;;;;;;;8.50;7.70;;;;;;;20.38;81.07;100661.69;5072978;28;20216;-75
2021/07/10 09:46:48;;;;;;;7.80;7.10;;;;;;;20.41;78.98;100655.41;5073286;28;20174;-74
2021/07/10 09:49:30;;;;;;;7.77;7.07;;;;;;;20.47;76.07;100645.59;5073225;28;20186;-75
2021/07/10 09:52:03;;;;;;;6.70;6.10;;;;;;;20.54;76.06;100656.81;5073286;28;20167;-75
2021/07/10 09:54:30;;;;;;;8.53;5.80;;;;;;;20.49;75.41;100659.91;5073224;28;20186;-75
2021/07/10 09:57:03;;;;;;;8.23;6.47;;;;;;;20.33;74.73;100654.47;5073070;28;20232;-75
2021/07/10 09:59:29;;;;;;;6.53;5.93;;;;;;;20.40;74.98;100651.03;5070509;28;20185;-75
2021/07/10 10:01:55;;;;;;;6.27;5.83;;;;;;;20.55;75.43;100652.09;5072915;28;20191;-75
2021/07/10 10:04:21;;;;;;;6.13;5.70;;;;;;;20.58;72.62;100643.00;5073147;28;20202;-75
2021/07/10 10:06:46;;;;;;;5.93;4.10;;;;;;;20.56;73.16;100637.81;5073039;28;20614;-74
2021/07/10 10:09:23;;;;;;;6.63;6.03;;;;;;;20.59;71.14;100636.28;5072962;28;20688;-74
2021/07/10 10:11:59;;;;;;;6.50;6.00;;;;;;;20.47;71.94;100631.72;5072824;28;20193;-74
2021/07/10 10:14:29;;;;;;;7.83;7.03;;;;;;;20.50;72.68;100628.19;5072928;28;20503;-74
2021/07/10 10:16:59;;;;;;;6.10;5.60;;;;;;;20.62;72.26;100624.41;5071467;28;20175;-74
2021/07/10 10:19:30;;;;;;;6.40;5.90;;;;;;;20.60;69.29;100630.34;5072881;28;20178;-74
2021/07/10 10:21:58;;;;;;;5.40;4.90;;;;;;;20.77;71.28;100620.66;5072724;28;20166;-74
2021/07/10 10:24:25;;;;;;;4.87;4.43;;;;;;;20.91;71.54;100620.03;5072085;28;20236;-74
2021/07/10 10:26:52;;;;;;;6.67;6.13;;;;;;;20.95;72.14;100618.91;5070692;28;20625;-74
2021/07/10 10:29:19;;;;;;;5.70;5.20;;;;;;;21.07;70.26;100617.88;5069606;28;20285;-74
2021/07/10 10:31:46;;;;;;;6.50;6.00;;;;;;;21.08;70.15;100614.72;5072294;28;20383;-74
2021/07/10 10:34:12;;;;;;;5.97;5.47;;;;;;;21.24;69.91;100622.03;5072144;28;20871;-74
2021/07/10 10:36:40;;;;;;;4.00;3.63;;;;;;;21.23;66.77;100612.91;5072319;28;20174;-74
2021/07/10 10:39:18;;;;;;;5.60;5.20;;;;;;;21.16;65.84;100604.50;5072836;28;20232;-74
2021/07/10 10:41:50;;;;;;;4.60;4.27;;;;;;;21.34;70.41;100599.16;5072349;28;20173;-74
2021/07/10 10:44:16;;;;;;;5.00;4.60;;;;;;;21.28;67.62;100603.47;5072317;28;20191;-74
2021/07/10 10:46:52;;;;;;;5.37;4.93;;;;;;;21.20;65.30;100599.75;5072192;28;20175;-72
2021/07/10 10:49:53;;;;;;;3.93;3.40;;;;;;;21.34;66.50;100599.97;5071420;28;20170;-72
2021/07/10 10:52:27;;;;;;;4.00;3.70;;;;;;;21.44;65.52;100603.25;5052273;28;20638;-72
2021/07/10 10:54:56;;;;;;;4.30;4.00;;;;;;;21.45;65.58;100602.84;5052472;28;20167;-74
2021/07/10 10:57:40;;;;;;;4.50;4.20;;;;;;;21.56;66.62;100597.41;5052150;28;20164;-74
2021/07/10 11:00:26;;;;;;;3.80;3.50;;;;;;;21.65;66.49;100595.91;5051981;28;20257;-74
2021/07/10 11:03:11;;;;;;;3.80;3.50;;;;;;;21.63;64.32;100595.50;5069646;28;20194;-74
2021/07/10 11:05:51;;;;;;;4.03;3.73;;;;;;;21.30;64.68;100595.53;5071584;28;20272;-74
2021/07/10 11:08:19;;;;;;;3.90;3.60;;;;;;;21.47;65.15;100585.78;5071919;28;20175;-74
2021/07/10 11:10:54;;;;;;;3.83;3.53;;;;;;;21.74;61.77;100583.66;5071365;28;20185;-74
2021/07/10 11:13:25;;;;;;;4.00;3.70;;;;;;;21.85;64.52;100585.38;5071833;28;20205;-74
2021/07/10 11:16:05;;;;;;;3.77;3.47;;;;;;;21.65;63.33;100589.53;5071685;28;20590;-74
2021/07/10 11:18:47;;;;;;;4.63;4.27;;;;;;;21.49;64.08;100586.22;5071754;28;20170;-74